createdAt,value
2019-04-10T00:00:44.142Z,7.70
2019-04-10T00:03:23.945Z,7.73
2019-04-10T00:05:41.057Z,7.60
2019-04-10T00:08:08.265Z,9.27
2019-04-10T00:10:36.205Z,8.23
2019-04-10T00:13:04.441Z,8.90
2019-04-10T00:15:32.613Z,8.13
2019-04-10T00:17:59.906Z,9.03
2019-04-10T00:20:27.119Z,7.33
2019-04-10T00:22:54.826Z,8.20
2019-04-10T00:25:21.922Z,8.40
2019-04-10T00:27:48.865Z,7.63
2019-04-10T00:30:16.618Z,7.97
2019-04-10T00:32:43.942Z,8.40
2019-04-10T00:35:11.058Z,8.67
2019-04-10T00:37:37.986Z,8.20
2019-04-10T00:40:06.908Z,8.67
2019-04-10T00:42:34.811Z,7.27
2019-04-10T00:45:02.084Z,8.50
2019-04-10T00:47:29.112Z,7.97
2019-04-10T00:49:56.092Z,7.40
2019-04-10T00:52:24.074Z,7.33
2019-04-10T00:54:51.225Z,7.10
2019-04-10T00:57:18.148Z,6.97
2019-04-10T00:59:45.287Z,7.57
2019-04-10T01:02:12.298Z,7.17
2019-04-10T01:04:39.347Z,6.70
2019-04-10T01:07:06.549Z,6.33
2019-04-10T01:09:33.498Z,7.27
2019-04-10T01:12:00.848Z,6.97
2019-04-10T01:14:27.820Z,6.70
2019-04-10T01:16:55.729Z,6.23
2019-04-10T01:19:23.788Z,6.20
2019-04-10T01:21:50.833Z,5.60
2019-04-10T01:24:17.792Z,6.77
2019-04-10T01:26:45.504Z,6.17
2019-04-10T01:29:13.398Z,5.80
2019-04-10T01:31:41.418Z,5.83
2019-04-10T01:34:09.478Z,6.60
2019-04-10T01:36:37.495Z,6.43
2019-04-10T01:39:08.673Z,6.37
2019-04-10T01:41:36.273Z,6.73
2019-04-10T01:44:05.653Z,6.10
2019-04-10T01:46:34.631Z,6.33
2019-04-10T01:49:01.795Z,5.50
2019-04-10T01:51:28.743Z,6.10
2019-04-10T01:53:55.671Z,5.40
2019-04-10T01:56:30.253Z,6.00
2019-04-10T01:58:51.786Z,5.50
2019-04-10T02:01:22.385Z,5.30
2019-04-10T02:03:49.945Z,5.93
2019-04-10T02:06:16.971Z,5.57
2019-04-10T02:08:43.891Z,5.83
2019-04-10T02:11:10.857Z,4.80
2019-04-10T02:13:37.793Z,6.00
2019-04-10T02:16:04.764Z,6.00
2019-04-10T02:18:31.720Z,5.47
2019-04-10T02:20:59.097Z,5.53
2019-04-10T02:23:26.267Z,5.53
2019-04-10T02:25:53.223Z,5.07
2019-04-10T02:28:20.724Z,5.40
2019-04-10T02:30:47.931Z,4.87
2019-04-10T02:33:15.929Z,5.17
2019-04-10T02:35:47.747Z,4.90
2019-04-10T02:38:30.922Z,5.03
2019-04-10T02:40:45.571Z,5.93
2019-04-10T02:43:13.999Z,5.03
2019-04-10T02:45:42.511Z,5.20
2019-04-10T02:48:12.082Z,4.70
2019-04-10T02:50:40.615Z,4.53
2019-04-10T02:53:08.021Z,6.20
2019-04-10T02:55:35.751Z,4.80
2019-04-10T02:58:02.829Z,4.60
2019-04-10T03:00:30.386Z,4.43
2019-04-10T03:02:59.209Z,4.60
2019-04-10T03:05:27.311Z,4.70
2019-04-10T03:07:55.839Z,4.13
2019-04-10T03:10:29.763Z,4.07
2019-04-10T03:12:52.616Z,3.93
2019-04-10T03:15:20.054Z,5.07
2019-04-10T03:17:47.004Z,4.97
2019-04-10T03:20:14.214Z,4.33
2019-04-10T03:22:41.180Z,4.90
2019-04-10T03:25:08.887Z,3.90
2019-04-10T03:27:36.546Z,3.77
2019-04-10T03:30:05.234Z,4.43
2019-04-10T03:32:44.528Z,5.00
2019-04-10T03:35:23.658Z,4.10
2019-04-10T03:37:50.833Z,4.77
2019-04-10T03:40:17.911Z,3.70
2019-04-10T03:42:45.445Z,4.40
2019-04-10T03:45:13.539Z,4.50
2019-04-10T03:47:41.751Z,4.87
2019-04-10T03:50:08.945Z,4.20
2019-04-10T03:52:35.949Z,4.77
2019-04-10T03:55:03.198Z,4.00
2019-04-10T03:57:30.897Z,4.27
2019-04-10T03:59:58.155Z,4.20
2019-04-10T04:02:25.180Z,4.20
2019-04-10T04:04:52.089Z,4.10
2019-04-10T04:07:19.112Z,4.40
2019-04-10T04:09:46.082Z,3.77
2019-04-10T04:12:13.077Z,4.20
2019-04-10T04:14:40.844Z,4.63
2019-04-10T04:17:08.117Z,4.67
2019-04-10T04:19:35.180Z,4.40
2019-04-10T04:22:02.110Z,4.53
2019-04-10T04:24:29.055Z,4.60
2019-04-10T04:26:57.249Z,3.93
2019-04-10T04:29:24.779Z,4.50
2019-04-10T04:31:52.649Z,4.10
2019-04-10T04:34:20.811Z,4.47
2019-04-10T04:36:49.166Z,3.63
2019-04-10T04:39:24.041Z,4.20
2019-04-10T04:41:45.193Z,4.50
2019-04-10T04:44:12.413Z,4.57
2019-04-10T04:46:39.468Z,5.37
2019-04-10T04:49:06.818Z,4.90
2019-04-10T04:51:34.636Z,4.57
2019-04-10T04:54:01.716Z,4.33
2019-04-10T04:56:28.664Z,4.10
2019-04-10T04:58:55.951Z,4.30
2019-04-10T05:01:23.128Z,4.80
2019-04-10T05:03:50.556Z,4.30
2019-04-10T05:06:18.134Z,5.03
2019-04-10T05:08:46.275Z,4.57
2019-04-10T05:11:13.896Z,4.63
2019-04-10T05:13:40.890Z,3.97
2019-04-10T05:16:08.187Z,4.30
2019-04-10T05:18:35.251Z,5.50
2019-04-10T05:21:03.051Z,4.40
2019-04-10T05:23:30.969Z,4.50
2019-04-10T05:25:59.133Z,4.63
2019-04-10T05:28:26.647Z,4.37
2019-04-10T05:30:54.608Z,4.37
2019-04-10T05:33:22.580Z,5.27
2019-04-10T05:35:50.767Z,4.80
2019-04-10T05:38:18.720Z,4.87
2019-04-10T05:40:45.828Z,4.43
2019-04-10T05:43:13.432Z,4.23
2019-04-10T05:45:40.519Z,4.63
2019-04-10T05:48:07.502Z,4.57
2019-04-10T05:50:35.682Z,4.63
2019-04-10T05:53:02.791Z,4.03
2019-04-10T05:55:29.721Z,4.87
2019-04-10T05:57:58.027Z,4.90
2019-04-10T06:00:25.101Z,4.77
2019-04-10T06:02:52.253Z,4.57
2019-04-10T06:05:20.310Z,4.20
2019-04-10T06:07:47.602Z,4.17
2019-04-10T06:10:15.463Z,4.83
2019-04-10T06:12:42.773Z,4.83
2019-04-10T06:15:10.683Z,5.80
2019-04-10T06:17:38.637Z,5.60
2019-04-10T06:20:07.131Z,5.10
2019-04-10T06:22:34.755Z,4.80
2019-04-10T06:25:03.672Z,5.83
2019-04-10T06:27:30.559Z,5.37
2019-04-10T06:29:57.470Z,4.00
2019-04-10T06:32:25.396Z,5.53
2019-04-10T06:34:52.559Z,5.57
2019-04-10T06:37:19.504Z,5.70
2019-04-10T06:39:46.559Z,4.20
2019-04-10T06:42:14.246Z,5.23
2019-04-10T06:44:41.818Z,5.93
2019-04-10T06:47:09.836Z,4.83
2019-04-10T06:49:36.907Z,5.07
2019-04-10T06:52:03.861Z,5.47
2019-04-10T06:54:31.030Z,5.80
2019-04-10T06:57:00.722Z,5.70
2019-04-10T06:59:28.250Z,5.80
2019-04-10T07:01:57.054Z,5.63
2019-04-10T07:04:25.555Z,5.30
2019-04-10T07:07:00.764Z,4.70
2019-04-10T07:09:25.427Z,5.20
2019-04-10T07:11:55.531Z,5.53
2019-04-10T07:14:20.550Z,5.80
2019-04-10T07:16:48.556Z,5.50
2019-04-10T07:19:15.790Z,5.50
2019-04-10T07:21:42.835Z,6.50
2019-04-10T07:24:12.159Z,5.90
2019-04-10T07:26:41.977Z,5.50
2019-04-10T07:29:07.552Z,6.07
2019-04-10T07:31:36.434Z,5.70
2019-04-10T07:34:03.615Z,6.17
2019-04-10T07:36:30.790Z,6.53
2019-04-10T07:38:57.768Z,5.33
2019-04-10T07:41:26.517Z,6.13
2019-04-10T07:43:55.844Z,6.30
2019-04-10T07:46:23.997Z,7.00
2019-04-10T07:48:51.018Z,6.23
2019-04-10T07:51:19.017Z,6.23
2019-04-10T07:53:47.906Z,6.10
2019-04-10T07:56:19.219Z,7.07
2019-04-10T07:58:43.992Z,6.80
2019-04-10T08:01:12.037Z,6.50
2019-04-10T08:03:39.600Z,7.00
2019-04-10T08:06:06.809Z,7.53
2019-04-10T08:08:34.076Z,7.90
2019-04-10T08:11:01.614Z,7.57
2019-04-10T08:13:30.816Z,7.20
2019-04-10T08:15:58.508Z,7.10
2019-04-10T08:18:25.594Z,7.70
2019-04-10T08:20:53.118Z,7.43
2019-04-10T08:23:20.265Z,8.40
2019-04-10T08:25:47.515Z,8.03
2019-04-10T08:28:15.575Z,7.63
2019-04-10T08:30:42.722Z,8.63
2019-04-10T08:33:09.898Z,8.30
2019-04-10T08:35:37.822Z,8.00
2019-04-10T08:38:05.485Z,8.80
2019-04-10T08:40:32.684Z,8.20
2019-04-10T08:42:59.904Z,7.63
2019-04-10T08:45:37.255Z,7.60
2019-04-10T08:47:59.546Z,7.87
2019-04-10T08:50:26.506Z,7.83
2019-04-10T08:52:53.663Z,7.03
2019-04-10T08:55:21.878Z,9.23
2019-04-10T08:57:48.901Z,8.40
2019-04-10T09:00:16.510Z,8.17
2019-04-10T09:02:44.439Z,8.60
2019-04-10T09:05:13.331Z,7.27
2019-04-10T09:07:40.373Z,8.67
2019-04-10T09:10:08.399Z,7.90
2019-04-10T09:12:35.334Z,7.87
2019-04-10T09:15:03.426Z,8.50
2019-04-10T09:17:31.367Z,7.80
2019-04-10T09:19:58.536Z,8.80
2019-04-10T09:22:25.640Z,8.23
2019-04-10T09:24:52.882Z,8.20
2019-04-10T09:27:19.849Z,7.70
2019-04-10T09:29:46.813Z,7.87
2019-04-10T09:32:14.621Z,7.47
2019-04-10T09:34:42.466Z,8.07
2019-04-10T09:37:10.503Z,7.90
2019-04-10T09:39:37.451Z,7.00
2019-04-10T09:42:04.398Z,8.20
2019-04-10T09:44:31.977Z,7.80
2019-04-10T09:47:00.012Z,7.20
2019-04-10T09:49:37.666Z,7.57
2019-04-10T09:51:56.467Z,8.87
2019-04-10T09:54:24.002Z,7.70
2019-04-10T09:56:52.737Z,9.17
2019-04-10T09:59:30.602Z,7.97
2019-04-10T10:01:48.628Z,9.20
2019-04-10T10:04:17.343Z,8.83
2019-04-10T10:06:45.357Z,8.83
2019-04-10T10:09:12.684Z,9.00
2019-04-10T10:11:39.630Z,9.50
2019-04-10T10:14:06.709Z,10.17
2019-04-10T10:16:33.830Z,9.33
2019-04-10T10:19:01.554Z,9.70
2019-04-10T10:21:29.537Z,10.33
2019-04-10T10:23:56.539Z,9.17
2019-04-10T10:26:23.970Z,9.67
2019-04-10T10:28:52.460Z,8.20
2019-04-10T10:31:20.154Z,9.37
2019-04-10T10:33:48.123Z,8.27
2019-04-10T10:36:15.819Z,9.90
2019-04-10T10:38:43.399Z,9.50
2019-04-10T10:41:11.074Z,8.00
2019-04-10T10:43:38.683Z,8.57
2019-04-10T10:46:05.625Z,10.07
2019-04-10T10:48:32.646Z,9.00
2019-04-10T10:50:59.879Z,9.33
2019-04-10T10:53:26.802Z,9.57
2019-04-10T10:55:54.002Z,10.77
2019-04-10T10:58:21.840Z,8.60
2019-04-10T11:00:50.085Z,9.40
2019-04-10T11:03:18.163Z,9.80
2019-04-10T11:05:46.437Z,10.20
2019-04-10T11:08:13.502Z,9.10
2019-04-10T11:10:41.351Z,9.50
2019-04-10T11:13:08.924Z,9.03
2019-04-10T11:15:37.744Z,10.20
2019-04-10T11:18:06.425Z,9.30
2019-04-10T11:20:34.109Z,9.10
2019-04-10T11:23:02.267Z,8.73
2019-04-10T11:25:30.103Z,9.93
2019-04-10T11:27:58.471Z,10.37
2019-04-10T11:30:26.912Z,8.60
2019-04-10T11:32:54.928Z,9.20
2019-04-10T11:35:24.133Z,8.50
2019-04-10T11:37:53.615Z,9.03
2019-04-10T11:40:20.992Z,8.97
2019-04-10T11:42:48.467Z,9.30
2019-04-10T11:45:18.215Z,9.50
2019-04-10T11:47:47.444Z,8.87
2019-04-10T11:52:49.756Z,9.87
2019-04-10T11:55:19.385Z,8.87
2019-04-10T11:57:45.846Z,8.50
2019-04-10T12:00:19.128Z,8.30
2019-04-10T12:02:47.021Z,8.27
2019-04-10T12:05:18.159Z,8.97
2019-04-10T12:08:23.502Z,8.10
2019-04-10T12:12:39.867Z,8.20
2019-04-10T12:15:08.020Z,7.67
2019-04-10T12:17:36.045Z,9.03
2019-04-10T12:20:04.851Z,7.73
2019-04-10T12:22:31.989Z,9.10
2019-04-10T12:24:59.050Z,9.67
2019-04-10T12:27:27.136Z,8.77
2019-04-10T12:29:55.081Z,8.03
2019-04-10T12:32:23.003Z,9.30
2019-04-10T12:34:50.785Z,8.47
2019-04-10T12:37:18.003Z,7.97
2019-04-10T12:39:45.639Z,8.00
2019-04-10T12:42:15.010Z,9.27
2019-04-10T12:44:42.775Z,8.57
2019-04-10T12:47:09.997Z,9.17
2019-04-10T12:49:37.282Z,8.70
2019-04-10T12:52:07.859Z,8.47
2019-04-10T12:54:35.504Z,8.30
2019-04-10T12:57:02.775Z,7.97
2019-04-10T12:59:29.853Z,8.40
2019-04-10T13:01:57.375Z,8.27
2019-04-10T13:04:24.769Z,8.00
2019-04-10T13:06:52.746Z,8.30
2019-04-10T13:09:19.903Z,8.60
2019-04-10T13:11:46.932Z,7.20
2019-04-10T13:14:14.746Z,7.10
2019-04-10T13:16:42.843Z,6.87
2019-04-10T13:19:11.122Z,7.90
2019-04-10T13:21:38.861Z,7.07
2019-04-10T13:24:05.908Z,7.30
2019-04-10T13:26:32.852Z,6.60
2019-04-10T13:29:00.137Z,7.63
2019-04-10T13:31:31.748Z,6.53
2019-04-10T13:34:00.514Z,6.50
2019-04-10T13:36:31.519Z,7.60
2019-04-10T13:39:02.499Z,7.00
2019-04-10T13:41:29.424Z,7.43
2019-04-10T13:43:56.632Z,7.73
2019-04-10T13:46:24.498Z,7.00
2019-04-10T13:48:52.126Z,7.30
2019-04-10T13:51:19.452Z,7.00
2019-04-10T13:53:46.434Z,6.00
2019-04-10T13:56:15.574Z,6.50
2019-04-10T13:58:42.637Z,6.70
2019-04-10T14:01:14.062Z,6.00
2019-04-10T14:03:42.484Z,7.10
2019-04-10T14:06:09.914Z,6.90
2019-04-10T14:08:58.705Z,7.43
2019-04-10T14:11:06.497Z,7.43
2019-04-10T14:13:33.449Z,5.43
2019-04-10T14:16:00.561Z,6.60
2019-04-10T14:18:27.518Z,7.30
2019-04-10T14:20:55.472Z,6.57
2019-04-10T14:23:29.251Z,6.67
2019-04-10T14:26:14.775Z,7.37
2019-04-10T14:28:42.989Z,6.83
2019-04-10T14:31:24.605Z,5.30
2019-04-10T14:33:53.245Z,6.07
2019-04-10T14:36:21.009Z,5.70
2019-04-10T14:38:49.494Z,6.43
2019-04-10T14:41:17.773Z,5.97
2019-04-10T14:43:45.639Z,6.70
2019-04-10T14:46:14.583Z,6.13
2019-04-10T14:48:42.457Z,7.10
2019-04-10T14:51:10.281Z,5.33
2019-04-10T14:53:37.314Z,6.00
2019-04-10T14:56:06.753Z,6.67
2019-04-10T14:58:35.159Z,6.30
2019-04-10T15:01:03.094Z,6.63
2019-04-10T15:03:31.298Z,6.67
2019-04-10T15:05:59.868Z,7.60
2019-04-10T15:08:27.977Z,6.63
2019-04-10T15:10:55.036Z,7.30
2019-04-10T15:13:23.128Z,6.93
2019-04-10T15:15:50.833Z,6.20
2019-04-10T15:18:18.450Z,6.67
2019-04-10T15:20:45.552Z,6.20
2019-04-10T15:23:13.146Z,5.90
2019-04-10T15:25:40.110Z,6.50
2019-04-10T15:28:07.030Z,5.70
2019-04-10T15:30:34.748Z,6.03
2019-04-10T15:33:02.488Z,6.20
2019-04-10T15:35:30.713Z,6.40
2019-04-10T15:37:57.834Z,6.80
2019-04-10T15:40:26.148Z,6.47
2019-04-10T15:42:54.725Z,6.23
2019-04-10T15:45:21.840Z,6.60
2019-04-10T15:47:53.937Z,6.30
2019-04-10T15:50:18.214Z,6.80
2019-04-10T15:52:45.708Z,5.97
2019-04-10T15:55:13.428Z,5.63
2019-04-10T15:57:50.015Z,8.20
2019-04-10T16:00:12.746Z,6.00
2019-04-10T16:02:40.582Z,6.47
2019-04-10T16:05:09.034Z,5.53
2019-04-10T16:07:36.314Z,5.60
2019-04-10T16:10:21.102Z,6.23
2019-04-10T16:12:48.074Z,5.50
2019-04-10T16:15:15.295Z,5.97
2019-04-10T16:17:52.384Z,5.53
2019-04-10T16:20:30.386Z,5.67
2019-04-10T16:23:16.358Z,6.20
2019-04-10T16:25:46.859Z,5.50
2019-04-10T16:28:14.538Z,5.47
2019-04-10T16:30:41.768Z,8.40
2019-04-10T16:33:09.062Z,4.80
2019-04-10T16:35:37.206Z,5.30
2019-04-10T16:38:05.699Z,5.30
2019-04-10T16:40:35.854Z,5.40
2019-04-10T16:43:04.894Z,5.17
2019-04-10T16:45:32.782Z,4.43
2019-04-10T16:48:00.799Z,5.00
2019-04-10T16:50:27.953Z,4.50
2019-04-10T16:52:55.610Z,4.63
2019-04-10T16:55:22.821Z,4.27
2019-04-10T16:57:49.782Z,4.40
2019-04-10T17:00:19.549Z,4.43
2019-04-10T17:02:48.624Z,6.10
2019-04-10T17:05:16.512Z,4.90
2019-04-10T17:07:43.443Z,4.10
2019-04-10T17:10:16.510Z,3.83
2019-04-10T17:12:40.090Z,5.03
2019-04-10T17:15:08.213Z,5.70
2019-04-10T17:17:35.270Z,4.00
2019-04-10T17:20:04.159Z,4.53
2019-04-10T17:22:39.081Z,5.70
2019-04-10T17:25:02.263Z,5.20
2019-04-10T17:27:29.820Z,5.30
2019-04-10T17:29:58.165Z,4.77
2019-04-10T17:32:25.302Z,4.87
2019-04-10T17:34:52.270Z,4.80
2019-04-10T17:37:19.292Z,4.53
2019-04-10T17:39:55.553Z,3.77
2019-04-10T17:42:24.031Z,3.90
2019-04-10T17:44:51.192Z,4.70
2019-04-10T17:47:18.171Z,3.10
2019-04-10T17:49:45.116Z,3.70
2019-04-10T17:52:12.372Z,4.83
2019-04-10T17:54:39.303Z,4.70
2019-04-10T17:57:06.536Z,4.03
2019-04-10T17:59:34.268Z,5.37
2019-04-10T18:02:05.320Z,4.60
2019-04-10T18:04:32.456Z,4.83
2019-04-10T18:06:59.673Z,4.40
2019-04-10T18:09:27.809Z,4.27
2019-04-10T18:11:54.781Z,4.00
2019-04-10T18:14:22.775Z,4.20
2019-04-10T18:16:49.883Z,4.53
2019-04-10T18:19:17.154Z,5.00
2019-04-10T18:21:45.852Z,6.70
2019-04-10T18:24:13.689Z,6.87
2019-04-10T18:26:41.628Z,5.97
2019-04-10T18:29:08.610Z,6.27
2019-04-10T18:31:36.732Z,8.20
2019-04-10T18:34:06.503Z,5.83
2019-04-10T18:36:32.577Z,6.60
2019-04-10T18:38:59.734Z,6.10
2019-04-10T18:41:27.673Z,6.70
2019-04-10T18:43:54.775Z,5.70
2019-04-10T18:46:22.417Z,6.40
2019-04-10T18:48:49.852Z,6.10
2019-04-10T18:51:18.043Z,5.63
2019-04-10T18:53:45.716Z,6.17
2019-04-10T18:56:13.321Z,5.17
2019-04-10T18:58:45.931Z,5.40
2019-04-10T19:01:45.365Z,4.27
2019-04-10T19:04:27.377Z,5.10
2019-04-10T19:06:58.743Z,4.70
2019-04-10T19:09:30.266Z,5.30
2019-04-10T19:11:57.430Z,5.30
2019-04-10T19:14:24.775Z,5.30
2019-04-10T19:16:52.886Z,5.23
2019-04-10T19:19:20.476Z,5.37
2019-04-10T19:21:48.449Z,5.13
2019-04-10T19:24:15.434Z,5.40
2019-04-10T19:26:43.292Z,4.60
2019-04-10T19:29:10.338Z,5.47
2019-04-10T19:31:40.192Z,4.40
2019-04-10T19:34:07.336Z,5.03
2019-04-10T19:36:34.464Z,5.10
2019-04-10T19:39:02.090Z,4.60
2019-04-10T19:41:34.513Z,4.73
2019-04-10T19:43:58.927Z,5.43
2019-04-10T19:46:25.975Z,5.40
2019-04-10T19:48:53.515Z,6.10
2019-04-10T19:51:21.795Z,5.67
2019-04-10T19:53:49.168Z,6.77
2019-04-10T19:56:16.226Z,7.50
2019-04-10T19:58:44.084Z,6.37
2019-04-10T20:01:11.149Z,6.27
2019-04-10T20:03:38.115Z,6.23
2019-04-10T20:06:05.940Z,4.77
2019-04-10T20:08:33.455Z,5.13
2019-04-10T20:11:00.470Z,5.33
2019-04-10T20:13:27.464Z,5.10
2019-04-10T20:15:55.163Z,4.40
2019-04-10T20:18:22.255Z,4.47
2019-04-10T20:20:49.215Z,4.67
2019-04-10T20:23:16.167Z,4.63
2019-04-10T20:25:43.104Z,4.13
2019-04-10T20:28:10.055Z,4.47
2019-04-10T20:30:37.140Z,5.07
2019-04-10T20:33:04.117Z,5.90
2019-04-10T20:35:32.040Z,5.40
2019-04-10T20:37:59.269Z,4.93
2019-04-10T20:40:26.194Z,5.10
2019-04-10T20:42:54.163Z,5.00
2019-04-10T20:45:21.588Z,5.13
2019-04-10T20:47:49.721Z,4.50
2019-04-10T20:50:17.542Z,5.10
2019-04-10T20:52:45.294Z,4.07
2019-04-10T20:55:13.224Z,4.40
2019-04-10T20:57:40.499Z,3.53
2019-04-10T21:00:09.784Z,4.97
2019-04-10T21:02:36.867Z,4.60
2019-04-10T21:05:06.676Z,5.23
2019-04-10T21:07:33.167Z,5.07
2019-04-10T21:10:00.830Z,4.87
2019-04-10T21:12:28.051Z,4.40
2019-04-10T21:14:56.747Z,5.20
2019-04-10T21:17:24.931Z,3.97
2019-04-10T21:19:51.945Z,4.90
2019-04-10T21:22:18.872Z,4.63
2019-04-10T21:24:45.832Z,4.33
2019-04-10T21:27:13.259Z,4.83
2019-04-10T21:29:52.717Z,4.53
2019-04-10T21:32:30.808Z,5.10
2019-04-10T21:34:58.020Z,5.00
2019-04-10T21:37:24.989Z,4.47
2019-04-10T21:39:52.293Z,4.00
2019-04-10T21:42:22.718Z,3.90
2019-04-10T21:44:49.241Z,4.33
2019-04-10T21:47:17.268Z,4.70
2019-04-10T21:49:44.325Z,3.97
2019-04-10T21:52:11.251Z,4.30
2019-04-10T21:54:48.773Z,4.00
2019-04-10T21:57:07.592Z,3.70
2019-04-10T21:59:34.734Z,3.90
2019-04-10T22:02:02.735Z,3.93
2019-04-10T22:04:30.868Z,3.33
2019-04-10T22:07:07.573Z,3.70
2019-04-10T22:09:53.607Z,3.23
2019-04-10T22:12:31.093Z,4.27
2019-04-10T22:14:52.939Z,3.77
2019-04-10T22:17:22.564Z,3.67
2019-04-10T22:19:50.741Z,3.53
2019-04-10T22:22:18.131Z,4.10
2019-04-10T22:24:46.245Z,3.97
2019-04-10T22:27:13.398Z,3.73
2019-04-10T22:29:40.355Z,4.40
2019-04-10T22:32:08.568Z,3.27
2019-04-10T22:34:36.365Z,3.57
2019-04-10T22:37:04.268Z,3.57
2019-04-10T22:39:31.705Z,3.53
2019-04-10T22:41:59.012Z,3.83
2019-04-10T22:44:34.768Z,3.70
2019-04-10T22:46:54.924Z,3.60
2019-04-10T22:49:22.225Z,3.80
2019-04-10T22:51:49.656Z,3.53
2019-04-10T22:54:17.925Z,3.67
2019-04-10T22:56:45.639Z,3.60
2019-04-10T22:59:13.595Z,3.97
2019-04-10T23:01:40.813Z,3.20
2019-04-10T23:04:08.077Z,3.10
2019-04-10T23:06:35.389Z,3.53
2019-04-10T23:09:02.657Z,3.20
2019-04-10T23:11:36.861Z,3.80
2019-04-10T23:13:58.566Z,3.30
2019-04-10T23:16:26.166Z,3.73
2019-04-10T23:18:53.934Z,3.60
2019-04-10T23:21:20.949Z,3.77
2019-04-10T23:23:48.943Z,3.90
2019-04-10T23:26:17.378Z,3.33
2019-04-10T23:28:44.360Z,3.57
2019-04-10T23:31:11.317Z,3.53
2019-04-10T23:33:38.292Z,3.90
2019-04-10T23:36:05.634Z,4.10
2019-04-10T23:38:33.225Z,3.40
2019-04-10T23:41:01.181Z,3.43
2019-04-10T23:43:29.375Z,3.97
2019-04-10T23:45:56.487Z,3.27
2019-04-10T23:48:24.538Z,3.30
2019-04-10T23:50:51.677Z,3.43
2019-04-10T23:53:18.623Z,3.27
2019-04-10T23:55:46.194Z,3.57
2019-04-10T23:58:13.919Z,3.80
